createdAt,value
2019-05-19T00:01:44.585Z,17.33
2019-05-19T00:04:13.098Z,16.73
2019-05-19T00:06:41.561Z,16.80
2019-05-19T00:09:10.131Z,16.57
2019-05-19T00:11:38.587Z,16.37
2019-05-19T00:14:07.107Z,16.60
2019-05-19T00:16:35.552Z,16.10
2019-05-19T00:19:04.134Z,16.57
2019-05-19T00:21:32.591Z,15.97
2019-05-19T00:24:01.028Z,17.93
2019-05-19T00:26:29.545Z,16.43
2019-05-19T00:28:57.967Z,18.60
2019-05-19T00:31:26.429Z,20.10
2019-05-19T00:33:54.883Z,19.10
2019-05-19T00:36:23.339Z,19.90
2019-05-19T00:38:51.777Z,20.03
2019-05-19T00:41:20.317Z,18.87
2019-05-19T00:43:49.003Z,19.40
2019-05-19T00:46:17.457Z,19.17
2019-05-19T00:48:46.150Z,21.37
2019-05-19T00:51:14.940Z,22.93
2019-05-19T00:53:43.368Z,24.20
2019-05-19T00:56:12.439Z,24.73
2019-05-19T00:58:41.468Z,22.67
2019-05-19T01:01:09.907Z,24.07
2019-05-19T01:03:38.373Z,20.27
2019-05-19T01:06:06.799Z,21.77
2019-05-19T01:08:35.261Z,22.90
2019-05-19T01:11:03.693Z,21.10
2019-05-19T01:13:32.151Z,22.07
2019-05-19T01:16:00.588Z,22.30
2019-05-19T01:18:29.054Z,22.47
2019-05-19T01:20:57.720Z,23.00
2019-05-19T01:23:26.177Z,21.87
2019-05-19T01:25:54.603Z,20.20
2019-05-19T01:28:23.080Z,20.33
2019-05-19T01:30:51.510Z,21.97
2019-05-19T01:33:19.983Z,20.23
2019-05-19T01:35:48.434Z,22.77
2019-05-19T01:38:16.903Z,22.97
2019-05-19T01:40:45.334Z,24.27
2019-05-19T01:43:13.860Z,25.53
2019-05-19T01:45:42.406Z,24.87
2019-05-19T01:48:10.888Z,25.00
2019-05-19T01:50:39.463Z,21.57
2019-05-19T01:53:08.003Z,25.73
2019-05-19T01:55:36.444Z,23.43
2019-05-19T01:58:04.887Z,22.87
2019-05-19T02:00:33.514Z,20.97
2019-05-19T02:03:01.975Z,19.77
2019-05-19T02:05:30.395Z,21.70
2019-05-19T02:07:58.863Z,22.60
2019-05-19T02:10:27.311Z,21.30
2019-05-19T02:12:55.752Z,22.10
2019-05-19T02:15:24.344Z,21.00
2019-05-19T02:17:52.763Z,23.80
2019-05-19T02:20:32.697Z,21.77
2019-05-19T02:22:51.615Z,22.60
2019-05-19T02:25:20.459Z,21.33
2019-05-19T02:27:48.966Z,21.30
2019-05-19T02:30:17.760Z,19.97
2019-05-19T02:32:46.197Z,18.67
2019-05-19T02:35:15.859Z,20.13
2019-05-19T02:37:44.304Z,18.43
2019-05-19T02:40:13.209Z,18.90
2019-05-19T02:42:42.849Z,18.90
2019-05-19T02:45:11.752Z,17.93
2019-05-19T02:47:42.791Z,18.87
2019-05-19T02:50:12.789Z,18.03
2019-05-19T02:52:41.886Z,18.90
2019-05-19T02:55:10.521Z,18.07
2019-05-19T02:57:40.491Z,19.20
2019-05-19T03:00:10.735Z,19.40
2019-05-19T03:02:39.201Z,18.70
2019-05-19T03:05:07.815Z,15.50
2019-05-19T03:07:36.390Z,18.07
2019-05-19T03:10:08.646Z,17.97
2019-05-19T03:12:37.071Z,21.10
2019-05-19T03:15:06.667Z,19.30
2019-05-19T03:17:35.094Z,17.03
2019-05-19T03:20:04.648Z,17.03
2019-05-19T03:22:34.711Z,17.27
2019-05-19T03:25:04.124Z,19.43
2019-05-19T03:27:32.556Z,18.43
2019-05-19T03:30:19.262Z,18.83
2019-05-19T03:32:49.435Z,19.00
2019-05-19T03:35:17.959Z,19.00
2019-05-19T03:37:46.468Z,19.63
2019-05-19T03:40:20.856Z,16.90
2019-05-19T03:42:52.263Z,19.03
2019-05-19T03:45:20.824Z,15.40
2019-05-19T03:47:49.349Z,19.23
2019-05-19T03:50:17.850Z,16.00
2019-05-19T03:52:46.299Z,19.97
2019-05-19T03:55:14.968Z,21.30
2019-05-19T03:57:43.423Z,21.13
2019-05-19T04:00:12.213Z,20.77
2019-05-19T04:02:40.732Z,21.20
2019-05-19T04:05:09.533Z,21.50
2019-05-19T04:07:38.051Z,20.03
2019-05-19T04:10:07.526Z,19.50
2019-05-19T04:12:35.990Z,19.33
2019-05-19T04:15:06.129Z,20.67
2019-05-19T04:17:34.584Z,18.17
2019-05-19T04:20:03.042Z,17.80
2019-05-19T04:22:31.531Z,16.53
2019-05-19T04:25:00.023Z,19.03
2019-05-19T04:27:28.480Z,16.97
2019-05-19T04:29:57.102Z,18.07
2019-05-19T04:32:25.619Z,18.53
2019-05-19T04:34:54.070Z,18.50
2019-05-19T04:37:22.496Z,17.80
2019-05-19T04:39:51.224Z,18.93
2019-05-19T04:42:19.667Z,18.53
2019-05-19T04:44:48.124Z,18.03
2019-05-19T04:47:16.553Z,18.50
2019-05-19T04:49:45.004Z,16.97
2019-05-19T04:52:13.438Z,18.60
2019-05-19T04:54:41.921Z,19.33
2019-05-19T04:57:10.357Z,19.53
2019-05-19T04:59:38.853Z,19.30
2019-05-19T05:02:07.285Z,18.60
2019-05-19T05:04:35.745Z,18.93
2019-05-19T05:07:04.445Z,18.87
2019-05-19T05:09:33.078Z,17.47
2019-05-19T05:12:01.627Z,15.30
2019-05-19T05:14:30.057Z,15.33
2019-05-19T05:16:58.503Z,15.13
2019-05-19T05:19:26.977Z,14.13
2019-05-19T05:21:55.417Z,14.87
2019-05-19T05:24:23.863Z,13.83
2019-05-19T05:26:52.321Z,14.03
2019-05-19T05:29:20.762Z,13.67
2019-05-19T05:31:49.203Z,19.33
2019-05-19T05:34:17.685Z,19.57
2019-05-19T05:36:46.132Z,18.97
2019-05-19T05:39:14.634Z,22.40
2019-05-19T05:41:43.099Z,21.20
2019-05-19T05:44:11.539Z,20.13
2019-05-19T05:46:39.993Z,20.67
2019-05-19T05:49:08.486Z,20.77
2019-05-19T05:51:36.967Z,19.60
2019-05-19T05:54:05.407Z,23.50
2019-05-19T05:56:33.863Z,22.73
2019-05-19T05:59:02.340Z,22.13
2019-05-19T06:01:30.817Z,24.90
2019-05-19T06:03:59.252Z,22.00
2019-05-19T06:06:27.710Z,20.97
2019-05-19T06:08:56.183Z,23.17
2019-05-19T06:11:24.648Z,22.60
2019-05-19T06:13:53.116Z,23.60
2019-05-19T06:16:21.575Z,24.53
2019-05-19T06:18:50.034Z,24.03
2019-05-19T06:21:18.480Z,23.07
2019-05-19T06:23:46.935Z,21.57
2019-05-19T06:26:15.445Z,22.13
2019-05-19T06:28:44.023Z,17.80
2019-05-19T06:31:12.971Z,17.10
2019-05-19T06:33:41.515Z,18.20
2019-05-19T06:36:10.421Z,18.40
2019-05-19T06:38:38.888Z,19.73
2019-05-19T06:41:07.413Z,19.57
2019-05-19T06:43:35.968Z,29.10
2019-05-19T06:46:04.474Z,25.20
2019-05-19T06:48:32.932Z,24.00
2019-05-19T06:51:01.383Z,23.30
2019-05-19T06:53:29.896Z,22.07
2019-05-19T06:55:58.332Z,22.10
2019-05-19T06:58:26.974Z,21.23
2019-05-19T07:00:57.275Z,21.70
2019-05-19T07:03:25.597Z,21.00
2019-05-19T07:05:54.076Z,20.37
2019-05-19T07:08:22.540Z,20.30
2019-05-19T07:10:50.974Z,21.90
2019-05-19T07:13:19.442Z,24.03
2019-05-19T07:15:48.053Z,23.10
2019-05-19T07:18:16.536Z,24.07
2019-05-19T07:20:45.059Z,23.17
2019-05-19T07:23:27.021Z,21.80
2019-05-19T07:25:43.995Z,22.70
2019-05-19T07:28:12.547Z,27.27
2019-05-19T07:30:41.056Z,21.97
2019-05-19T07:33:09.484Z,22.97
2019-05-19T07:35:37.956Z,27.63
2019-05-19T07:38:07.509Z,22.47
2019-05-19T07:40:36.288Z,23.43
2019-05-19T07:43:04.810Z,24.03
2019-05-19T07:45:33.438Z,25.73
2019-05-19T07:48:01.858Z,21.30
2019-05-19T07:50:30.359Z,24.53
2019-05-19T07:52:58.844Z,21.50
2019-05-19T07:55:27.342Z,23.73
2019-05-19T07:57:55.858Z,21.27
2019-05-19T08:00:24.328Z,22.60
2019-05-19T08:02:52.817Z,23.57
2019-05-19T08:05:21.364Z,22.07
2019-05-19T08:07:49.816Z,22.77
2019-05-19T08:10:18.499Z,20.73
2019-05-19T08:12:47.044Z,21.83
2019-05-19T08:15:15.955Z,24.13
2019-05-19T08:17:44.391Z,21.60
2019-05-19T08:20:13.627Z,23.50
2019-05-19T08:22:42.099Z,20.90
2019-05-19T08:25:10.943Z,22.20
2019-05-19T08:27:39.539Z,20.10
2019-05-19T08:30:08.360Z,19.73
2019-05-19T08:32:36.812Z,20.90
2019-05-19T08:35:06.920Z,21.70
2019-05-19T08:37:35.391Z,23.40
2019-05-19T08:40:04.767Z,17.90
2019-05-19T08:42:33.255Z,22.07
2019-05-19T08:45:01.808Z,20.47
2019-05-19T08:47:30.274Z,17.53
2019-05-19T08:49:58.719Z,20.63
2019-05-19T08:52:27.255Z,20.97
2019-05-19T08:54:55.694Z,20.77
2019-05-19T08:57:24.157Z,21.20
2019-05-19T08:59:52.842Z,21.30
2019-05-19T09:02:21.330Z,21.60
2019-05-19T09:04:49.833Z,21.40
2019-05-19T09:07:18.313Z,20.13
2019-05-19T09:09:46.903Z,20.30
2019-05-19T09:12:15.415Z,21.50
2019-05-19T09:14:43.874Z,21.10
2019-05-19T09:17:12.499Z,19.00
2019-05-19T09:19:40.975Z,19.93
2019-05-19T09:22:09.523Z,20.90
2019-05-19T09:24:38.047Z,18.03
2019-05-19T09:27:06.521Z,17.87
2019-05-19T09:29:34.956Z,19.37
2019-05-19T09:32:03.403Z,16.60
2019-05-19T09:34:31.847Z,15.93
2019-05-19T09:37:00.336Z,15.00
2019-05-19T09:39:28.800Z,15.13
2019-05-19T09:41:57.241Z,15.40
2019-05-19T09:44:25.836Z,13.63
2019-05-19T09:46:54.452Z,15.40
2019-05-19T09:49:32.110Z,13.63
2019-05-19T09:52:01.685Z,16.07
2019-05-19T09:54:42.763Z,18.37
2019-05-19T09:57:00.702Z,17.97
2019-05-19T09:59:29.980Z,15.60
2019-05-19T10:01:58.675Z,17.57
2019-05-19T10:04:27.147Z,15.13
2019-05-19T10:06:55.940Z,15.93
2019-05-19T10:09:49.675Z,15.23
2019-05-19T10:12:18.169Z,17.33
2019-05-19T10:14:46.643Z,15.93
2019-05-19T10:17:15.082Z,18.73
2019-05-19T10:19:43.668Z,20.83
2019-05-19T10:22:12.295Z,21.10
2019-05-19T10:24:40.987Z,19.63
2019-05-19T10:27:09.566Z,18.60
2019-05-19T10:29:38.116Z,19.10
2019-05-19T10:32:06.687Z,18.00
2019-05-19T10:34:36.118Z,17.87
2019-05-19T10:37:04.834Z,19.20
2019-05-19T10:39:33.428Z,17.83
2019-05-19T10:42:02.501Z,19.90
2019-05-19T10:44:31.456Z,17.50
2019-05-19T10:47:00.220Z,15.73
2019-05-19T10:49:28.723Z,18.77
2019-05-19T10:51:57.385Z,19.63
2019-05-19T10:54:25.843Z,21.47
2019-05-19T10:56:54.465Z,17.90
2019-05-19T10:59:22.878Z,17.03
2019-05-19T11:01:51.347Z,14.47
2019-05-19T11:04:19.865Z,17.10
2019-05-19T11:06:48.336Z,20.33
2019-05-19T11:09:16.787Z,17.70
2019-05-19T11:11:45.362Z,17.67
2019-05-19T11:14:13.817Z,20.80
2019-05-19T11:16:42.351Z,17.53
2019-05-19T11:19:10.794Z,19.97
2019-05-19T11:21:39.258Z,18.70
2019-05-19T11:24:07.687Z,19.97
2019-05-19T11:26:36.176Z,18.83
2019-05-19T11:29:05.674Z,16.57
2019-05-19T11:31:34.150Z,18.73
2019-05-19T11:34:02.586Z,16.37
2019-05-19T11:36:31.050Z,14.73
2019-05-19T11:38:59.711Z,16.30
2019-05-19T11:41:28.524Z,13.93
2019-05-19T11:43:57.272Z,15.73
2019-05-19T11:46:25.704Z,13.83
2019-05-19T11:48:54.177Z,12.77
2019-05-19T11:51:22.632Z,15.33
2019-05-19T11:53:51.100Z,11.67
2019-05-19T11:56:19.530Z,11.17
2019-05-19T11:58:48.085Z,10.17
2019-05-19T12:01:16.551Z,10.63
2019-05-19T12:03:45.215Z,11.80
2019-05-19T12:06:13.648Z,11.37
2019-05-19T12:08:42.135Z,10.50
2019-05-19T12:11:10.572Z,10.03
2019-05-19T12:13:39.132Z,8.80
2019-05-19T12:16:07.590Z,10.77
2019-05-19T12:18:36.095Z,12.00
2019-05-19T12:21:04.716Z,9.80
2019-05-19T12:23:33.266Z,11.40
2019-05-19T12:26:01.750Z,10.20
2019-05-19T12:28:31.845Z,8.83
2019-05-19T12:31:00.411Z,9.40
2019-05-19T12:33:28.868Z,9.90
2019-05-19T12:35:57.316Z,11.30
2019-05-19T12:38:25.864Z,11.13
2019-05-19T12:40:54.278Z,11.07
2019-05-19T12:43:22.759Z,10.47
2019-05-19T12:45:51.505Z,12.60
2019-05-19T12:48:20.366Z,14.83
2019-05-19T12:50:48.917Z,14.33
2019-05-19T12:53:17.437Z,15.15
2019-05-19T12:55:45.894Z,17.40
2019-05-19T12:58:14.331Z,12.20
2019-05-19T13:00:42.798Z,12.63
2019-05-19T13:03:11.392Z,16.67
2019-05-19T13:05:39.868Z,13.33
2019-05-19T13:08:11.389Z,15.03
2019-05-19T13:10:38.555Z,14.33
2019-05-19T13:13:07.062Z,12.73
2019-05-19T13:15:35.536Z,11.93
2019-05-19T13:18:04.128Z,12.60
2019-05-19T13:20:32.587Z,4.17
2019-05-19T13:23:01.014Z,2.43
2019-05-19T13:25:29.505Z,2.50
2019-05-19T13:27:57.931Z,2.10
2019-05-19T13:30:26.446Z,2.70
2019-05-19T13:32:55.060Z,2.13
2019-05-19T13:35:23.731Z,2.17
2019-05-19T13:37:52.192Z,2.13
2019-05-19T13:40:20.821Z,2.30
2019-05-19T13:42:49.272Z,2.30
2019-05-19T13:45:18.008Z,2.50
2019-05-19T13:47:46.583Z,2.70
2019-05-19T13:50:15.385Z,2.50
2019-05-19T13:52:43.921Z,2.40
2019-05-19T13:55:12.902Z,2.47
2019-05-19T13:57:41.490Z,2.90
2019-05-19T14:00:10.824Z,3.10
2019-05-19T14:02:39.755Z,3.20
2019-05-19T14:05:09.013Z,3.67
2019-05-19T14:07:37.539Z,3.60
2019-05-19T14:10:07.889Z,3.87
2019-05-19T14:12:36.552Z,4.30
2019-05-19T14:15:06.434Z,4.47
2019-05-19T14:17:34.982Z,3.97
2019-05-19T14:20:05.255Z,3.90
2019-05-19T14:22:33.719Z,4.07
2019-05-19T14:25:02.149Z,4.27
2019-05-19T14:27:31.063Z,4.30
2019-05-19T14:29:59.694Z,4.50
2019-05-19T14:32:28.170Z,4.53
2019-05-19T14:34:56.619Z,4.60
2019-05-19T14:37:25.076Z,4.57
2019-05-19T14:39:53.584Z,4.20
2019-05-19T14:42:40.035Z,4.30
2019-05-19T14:45:09.095Z,3.80
2019-05-19T14:47:37.623Z,4.70
2019-05-19T14:50:06.600Z,5.63
2019-05-19T14:52:35.107Z,5.53
2019-05-19T14:55:04.010Z,5.90
2019-05-19T14:57:43.927Z,6.40
2019-05-19T15:00:03.208Z,5.73
2019-05-19T15:02:31.736Z,6.60
2019-05-19T15:05:00.227Z,5.77
2019-05-19T15:07:28.675Z,5.53
2019-05-19T15:09:57.229Z,6.23
2019-05-19T15:12:26.228Z,6.33
2019-05-19T15:14:54.717Z,6.27
2019-05-19T15:17:23.247Z,5.87
2019-05-19T15:19:51.718Z,5.90
2019-05-19T15:22:20.271Z,5.90
2019-05-19T15:24:48.764Z,5.93
2019-05-19T15:27:17.208Z,6.90
2019-05-19T15:29:45.689Z,6.50
2019-05-19T15:32:14.129Z,7.30
2019-05-19T15:34:42.670Z,7.13
2019-05-19T15:37:11.201Z,7.67
2019-05-19T15:39:39.724Z,7.00
2019-05-19T15:42:08.158Z,7.60
2019-05-19T15:44:36.696Z,6.93
2019-05-19T15:47:05.134Z,7.20
2019-05-19T15:49:33.598Z,7.30
2019-05-19T15:52:04.808Z,7.17
2019-05-19T15:54:32.410Z,9.07
2019-05-19T15:57:00.871Z,6.93
2019-05-19T15:59:29.352Z,9.03
2019-05-19T16:01:57.827Z,7.40
2019-05-19T16:04:26.276Z,8.07
2019-05-19T16:06:54.803Z,10.03
2019-05-19T16:09:23.240Z,8.03
2019-05-19T16:11:51.700Z,6.40
2019-05-19T16:14:20.167Z,7.10
2019-05-19T16:16:48.629Z,5.93
2019-05-19T16:19:17.066Z,5.53
2019-05-19T16:21:45.528Z,6.33
2019-05-19T16:24:14.052Z,6.13
2019-05-19T16:26:42.496Z,6.47
2019-05-19T16:29:10.950Z,6.97
2019-05-19T16:31:39.416Z,5.30
2019-05-19T16:34:07.853Z,6.40
2019-05-19T16:36:36.342Z,6.77
2019-05-19T16:39:07.009Z,6.70
2019-05-19T16:41:35.547Z,6.97
2019-05-19T16:44:04.256Z,5.60
2019-05-19T16:46:32.731Z,5.17
2019-05-19T16:49:01.220Z,5.00
2019-05-19T16:51:29.778Z,5.00
2019-05-19T16:53:59.983Z,5.03
2019-05-19T16:56:28.449Z,4.77
2019-05-19T16:58:56.885Z,4.53
2019-05-19T17:01:25.375Z,4.97
2019-05-19T17:03:53.855Z,5.33
2019-05-19T17:06:22.280Z,5.20
2019-05-19T17:08:50.737Z,6.50
2019-05-19T17:11:19.179Z,6.50
2019-05-19T17:13:47.645Z,7.83
2019-05-19T17:16:16.168Z,8.30
2019-05-19T17:18:44.910Z,8.37
2019-05-19T17:21:13.478Z,7.70
2019-05-19T17:23:41.982Z,7.47
2019-05-19T17:26:10.489Z,7.73
2019-05-19T17:28:39.035Z,7.03
2019-05-19T17:31:07.838Z,8.03
2019-05-19T17:33:36.616Z,8.83
2019-05-19T17:36:05.111Z,7.77
2019-05-19T17:38:33.600Z,8.03
2019-05-19T17:41:02.038Z,7.70
2019-05-19T17:43:30.514Z,7.27
2019-05-19T17:45:58.953Z,6.83
2019-05-19T17:48:27.461Z,6.60
2019-05-19T17:50:55.980Z,7.57
2019-05-19T17:53:24.490Z,8.40
2019-05-19T17:55:54.251Z,8.07
2019-05-19T17:58:23.631Z,7.87
2019-05-19T18:00:52.318Z,9.30
2019-05-19T18:03:21.215Z,8.17
2019-05-19T18:05:49.907Z,8.70
2019-05-19T18:08:18.400Z,8.23
2019-05-19T18:10:46.871Z,7.60
2019-05-19T18:13:15.415Z,8.63
2019-05-19T18:15:44.085Z,8.77
2019-05-19T18:18:13.045Z,8.53
2019-05-19T18:20:41.514Z,9.07
2019-05-19T18:23:09.973Z,7.77
2019-05-19T18:25:38.517Z,8.23
2019-05-19T18:28:06.975Z,8.57
2019-05-19T18:30:35.447Z,8.60
2019-05-19T18:33:03.872Z,11.60
2019-05-19T18:35:32.484Z,12.83
2019-05-19T18:38:01.100Z,12.90
2019-05-19T18:40:29.733Z,13.00
2019-05-19T18:42:58.186Z,11.97
2019-05-19T18:45:26.766Z,10.97
2019-05-19T18:47:55.289Z,11.10
2019-05-19T18:50:23.887Z,12.90
2019-05-19T18:52:52.442Z,13.33
2019-05-19T18:55:20.907Z,14.80
2019-05-19T18:57:49.526Z,14.93
2019-05-19T19:00:32.575Z,15.57
2019-05-19T19:03:01.200Z,14.17
2019-05-19T19:05:29.698Z,15.70
2019-05-19T19:07:58.586Z,12.97
2019-05-19T19:10:27.079Z,11.97
2019-05-19T19:12:55.540Z,12.23
2019-05-19T19:15:24.224Z,12.10
2019-05-19T19:17:52.837Z,12.87
2019-05-19T19:20:21.630Z,11.47
2019-05-19T19:22:50.111Z,13.43
2019-05-19T19:25:18.563Z,11.97
2019-05-19T19:27:47.062Z,12.10
2019-05-19T19:30:15.837Z,12.93
2019-05-19T19:32:44.391Z,14.57
2019-05-19T19:35:13.055Z,14.47
2019-05-19T19:37:41.530Z,14.33
2019-05-19T19:40:10.384Z,14.90
2019-05-19T19:42:39.035Z,13.97
2019-05-19T19:45:07.726Z,13.60
2019-05-19T19:47:36.243Z,12.17
2019-05-19T19:50:06.905Z,13.10
2019-05-19T19:52:35.399Z,13.00
2019-05-19T19:55:05.239Z,13.40
2019-05-19T19:57:33.712Z,14.00
2019-05-19T20:00:02.283Z,13.90
2019-05-19T20:02:30.710Z,13.43
2019-05-19T20:04:59.259Z,14.83
2019-05-19T20:07:27.765Z,15.20
2019-05-19T20:09:56.304Z,14.60
2019-05-19T20:12:25.111Z,15.87
2019-05-19T20:14:53.640Z,17.10
2019-05-19T20:17:22.100Z,16.40
2019-05-19T20:19:50.647Z,18.23
2019-05-19T20:22:19.072Z,17.43
2019-05-19T20:24:47.526Z,18.23
2019-05-19T20:27:15.978Z,17.73
2019-05-19T20:29:44.447Z,18.97
2019-05-19T20:32:12.890Z,18.70
2019-05-19T20:34:41.396Z,19.43
2019-05-19T20:37:09.954Z,17.53
2019-05-19T20:39:38.479Z,20.40
2019-05-19T20:42:06.919Z,21.97
2019-05-19T20:44:35.439Z,19.40
2019-05-19T20:47:03.864Z,22.67
2019-05-19T20:49:32.360Z,21.80
2019-05-19T20:52:00.800Z,23.97
2019-05-19T20:54:29.265Z,22.57
2019-05-19T20:56:57.774Z,24.17
2019-05-19T20:59:26.228Z,24.33
2019-05-19T21:01:54.705Z,24.87
2019-05-19T21:04:23.277Z,26.97
2019-05-19T21:06:51.716Z,23.63
2019-05-19T21:09:20.299Z,26.43
2019-05-19T21:11:48.776Z,28.50
2019-05-19T21:14:17.473Z,28.37
2019-05-19T21:16:46.070Z,27.23
2019-05-19T21:19:14.523Z,28.73
2019-05-19T21:21:43.003Z,27.50
2019-05-19T21:24:11.471Z,29.97
2019-05-19T21:26:39.991Z,30.40
2019-05-19T21:29:08.449Z,29.13
2019-05-19T21:31:37.001Z,27.43
2019-05-19T21:34:05.434Z,27.23
2019-05-19T21:36:33.888Z,26.43
2019-05-19T21:39:02.319Z,28.23
2019-05-19T21:41:30.799Z,28.10
2019-05-19T21:43:59.292Z,27.03
2019-05-19T21:46:27.797Z,29.47
2019-05-19T21:48:56.242Z,26.70
2019-05-19T21:51:24.713Z,26.37
2019-05-19T21:53:53.445Z,25.27
2019-05-19T21:56:22.051Z,28.33
2019-05-19T21:58:50.488Z,26.10
2019-05-19T22:01:23.295Z,25.47
2019-05-19T22:03:49.520Z,28.23
2019-05-19T22:06:21.468Z,28.10
2019-05-19T22:08:49.962Z,25.70
2019-05-19T22:11:18.444Z,27.47
2019-05-19T22:13:46.865Z,29.50
2019-05-19T22:16:15.291Z,27.23
2019-05-19T22:18:43.851Z,26.70
2019-05-19T22:21:12.312Z,28.17
2019-05-19T22:23:40.842Z,30.03
2019-05-19T22:26:09.340Z,29.57
2019-05-19T22:28:37.788Z,33.17
2019-05-19T22:31:06.247Z,30.70
2019-05-19T22:33:34.697Z,30.70
2019-05-19T22:36:03.178Z,33.53
2019-05-19T22:38:31.700Z,35.43
2019-05-19T22:41:00.251Z,35.23
2019-05-19T22:43:29.085Z,32.67
2019-05-19T22:45:57.672Z,34.07
2019-05-19T22:48:26.152Z,35.63
2019-05-19T22:50:54.589Z,38.17
2019-05-19T22:53:23.069Z,39.93
2019-05-19T22:55:51.640Z,37.90
2019-05-19T22:58:20.201Z,38.13
2019-05-19T23:00:48.627Z,40.67
2019-05-19T23:03:17.093Z,45.03
2019-05-19T23:05:45.540Z,43.93
2019-05-19T23:08:14.028Z,43.37
2019-05-19T23:10:42.662Z,40.67
2019-05-19T23:13:11.139Z,45.97
2019-05-19T23:15:39.673Z,45.83
2019-05-19T23:18:08.133Z,47.87
2019-05-19T23:20:36.665Z,49.60
2019-05-19T23:23:05.109Z,47.30
2019-05-19T23:25:33.578Z,47.37
2019-05-19T23:28:01.993Z,48.00
2019-05-19T23:30:30.454Z,48.10
2019-05-19T23:32:58.899Z,47.57
2019-05-19T23:35:27.359Z,47.50
2019-05-19T23:37:55.820Z,42.30
2019-05-19T23:40:24.286Z,42.13
2019-05-19T23:42:52.779Z,49.37
2019-05-19T23:45:21.235Z,43.17
2019-05-19T23:47:49.715Z,46.10
2019-05-19T23:50:18.620Z,44.70
2019-05-19T23:52:47.058Z,43.53
2019-05-19T23:55:15.966Z,49.87
2019-05-19T23:57:44.457Z,45.27
